sensor_id;sensor_type;location;lat;lon;timestamp;P1;durP1;ratioP1;P2;durP2;ratioP2
43901;SDS011;29562;40.390;-3.706;2023-05-23T00:05:50;5.78;;;2.35;;
43901;SDS011;29562;40.390;-3.706;2023-05-23T00:15:51;4.03;;;2.45;;
43901;SDS011;29562;40.390;-3.706;2023-05-23T00:25:52;3.42;;;2.35;;
43901;SDS011;29562;40.390;-3.706;2023-05-23T00:35:54;4.50;;;2.03;;
43901;SDS011;29562;40.390;-3.706;2023-05-23T00:45:56;5.40;;;1.95;;
43901;SDS011;29562;40.390;-3.706;2023-05-23T00:55:57;5.38;;;1.70;;
43901;SDS011;29562;40.390;-3.706;2023-05-23T01:05:58;6.63;;;1.92;;
43901;SDS011;29562;40.390;-3.706;2023-05-23T01:36:07;3.30;;;2.10;;
43901;SDS011;29562;40.390;-3.706;2023-05-23T01:46:08;5.40;;;2.65;;
43901;SDS011;29562;40.390;-3.706;2023-05-23T01:56:10;3.80;;;2.90;;
43901;SDS011;29562;40.390;-3.706;2023-05-23T02:06:11;3.70;;;2.42;;
43901;SDS011;29562;40.390;-3.706;2023-05-23T02:16:13;4.78;;;2.83;;
43901;SDS011;29562;40.390;-3.706;2023-05-23T02:26:14;3.85;;;2.53;;
43901;SDS011;29562;40.390;-3.706;2023-05-23T02:36:15;4.75;;;2.90;;
43901;SDS011;29562;40.390;-3.706;2023-05-23T02:46:16;3.00;;;2.38;;
43901;SDS011;29562;40.390;-3.706;2023-05-23T02:56:17;3.78;;;2.40;;
43901;SDS011;29562;40.390;-3.706;2023-05-23T03:06:19;3.85;;;2.80;;
43901;SDS011;29562;40.390;-3.706;2023-05-23T03:16:21;3.65;;;2.85;;
43901;SDS011;29562;40.390;-3.706;2023-05-23T03:26:23;3.45;;;2.45;;
43901;SDS011;29562;40.390;-3.706;2023-05-23T03:36:24;4.72;;;3.00;;
43901;SDS011;29562;40.390;-3.706;2023-05-23T03:46:27;5.00;;;2.88;;
43901;SDS011;29562;40.390;-3.706;2023-05-23T03:56:28;6.18;;;3.00;;
43901;SDS011;29562;40.390;-3.706;2023-05-23T04:06:29;2.90;;;2.53;;
43901;SDS011;29562;40.390;-3.706;2023-05-23T04:16:30;5.72;;;3.40;;
43901;SDS011;29562;40.390;-3.706;2023-05-23T04:26:32;5.63;;;2.70;;
43901;SDS011;29562;40.390;-3.706;2023-05-23T04:36:35;4.68;;;2.83;;
43901;SDS011;29562;40.390;-3.706;2023-05-23T04:46:37;5.00;;;3.03;;
43901;SDS011;29562;40.390;-3.706;2023-05-23T04:56:41;4.95;;;3.33;;
43901;SDS011;29562;40.390;-3.706;2023-05-23T05:06:42;5.18;;;3.30;;
43901;SDS011;29562;40.390;-3.706;2023-05-23T05:16:43;3.67;;;3.00;;
43901;SDS011;29562;40.390;-3.706;2023-05-23T05:26:46;4.65;;;2.67;;
43901;SDS011;29562;40.390;-3.706;2023-05-23T05:36:47;4.50;;;2.70;;
43901;SDS011;29562;40.390;-3.706;2023-05-23T05:46:49;3.25;;;2.63;;
43901;SDS011;29562;40.390;-3.706;2023-05-23T05:56:50;3.13;;;2.83;;
43901;SDS011;29562;40.390;-3.706;2023-05-23T06:06:51;3.75;;;2.92;;
43901;SDS011;29562;40.390;-3.706;2023-05-23T06:16:53;3.47;;;2.67;;
43901;SDS011;29562;40.390;-3.706;2023-05-23T06:26:54;3.75;;;2.92;;
43901;SDS011;29562;40.390;-3.706;2023-05-23T06:36:55;5.47;;;2.60;;
43901;SDS011;29562;40.390;-3.706;2023-05-23T06:46:56;5.22;;;3.03;;
43901;SDS011;29562;40.390;-3.706;2023-05-23T06:56:57;3.90;;;3.00;;
43901;SDS011;29562;40.390;-3.706;2023-05-23T07:06:59;7.88;;;3.00;;
43901;SDS011;29562;40.390;-3.706;2023-05-23T07:17:00;5.40;;;3.33;;
43901;SDS011;29562;40.390;-3.706;2023-05-23T07:27:01;4.43;;;2.92;;
43901;SDS011;29562;40.390;-3.706;2023-05-23T07:37:02;5.88;;;3.83;;
43901;SDS011;29562;40.390;-3.706;2023-05-23T07:47:03;6.18;;;3.05;;
43901;SDS011;29562;40.390;-3.706;2023-05-23T07:57:04;4.63;;;2.88;;
43901;SDS011;29562;40.390;-3.706;2023-05-23T08:07:06;5.25;;;2.78;;
43901;SDS011;29562;40.390;-3.706;2023-05-23T08:17:11;4.45;;;3.05;;
43901;SDS011;29562;40.390;-3.706;2023-05-23T08:27:12;3.72;;;2.90;;
43901;SDS011;29562;40.390;-3.706;2023-05-23T08:37:13;3.95;;;2.55;;
43901;SDS011;29562;40.390;-3.706;2023-05-23T08:47:14;3.00;;;2.70;;
43901;SDS011;29562;40.390;-3.706;2023-05-23T08:57:16;2.65;;;2.00;;
43901;SDS011;29562;40.390;-3.706;2023-05-23T09:07:17;3.67;;;1.80;;
43901;SDS011;29562;40.390;-3.706;2023-05-23T09:17:19;11.43;;;2.17;;
43901;SDS011;29562;40.390;-3.706;2023-05-23T09:27:21;5.70;;;1.90;;
43901;SDS011;29562;40.390;-3.706;2023-05-23T09:37:29;3.28;;;2.13;;
43901;SDS011;29562;40.390;-3.706;2023-05-23T09:47:31;5.43;;;2.90;;
43901;SDS011;29562;40.390;-3.706;2023-05-23T09:57:36;3.63;;;2.53;;
43901;SDS011;29562;40.390;-3.706;2023-05-23T10:07:40;4.17;;;3.00;;
43901;SDS011;29562;40.390;-3.706;2023-05-23T10:27:43;4.10;;;2.85;;
43901;SDS011;29562;40.390;-3.706;2023-05-23T10:37:49;6.53;;;2.72;;
43901;SDS011;29562;40.390;-3.706;2023-05-23T10:47:53;3.47;;;2.55;;
43901;SDS011;29562;40.390;-3.706;2023-05-23T11:08:13;4.05;;;2.83;;
43901;SDS011;29562;40.390;-3.706;2023-05-23T11:18:21;4.78;;;2.90;;
43901;SDS011;29562;40.390;-3.706;2023-05-23T11:28:22;23.40;;;4.03;;
43901;SDS011;29562;40.390;-3.706;2023-05-23T11:38:24;4.80;;;2.35;;
43901;SDS011;29562;40.390;-3.706;2023-05-23T11:48:25;5.05;;;2.53;;
43901;SDS011;29562;40.390;-3.706;2023-05-23T11:58:28;3.00;;;2.67;;
43901;SDS011;29562;40.390;-3.706;2023-05-23T12:08:29;3.95;;;1.98;;
43901;SDS011;29562;40.390;-3.706;2023-05-23T12:18:31;4.53;;;2.05;;
43901;SDS011;29562;40.390;-3.706;2023-05-23T12:28:39;4.72;;;2.47;;
43901;SDS011;29562;40.390;-3.706;2023-05-23T12:38:44;3.30;;;2.40;;
43901;SDS011;29562;40.390;-3.706;2023-05-23T12:48:45;5.15;;;2.10;;
43901;SDS011;29562;40.390;-3.706;2023-05-23T12:58:46;5.00;;;1.95;;
43901;SDS011;29562;40.390;-3.706;2023-05-23T13:08:48;5.15;;;2.40;;
43901;SDS011;29562;40.390;-3.706;2023-05-23T13:18:50;4.60;;;2.20;;
43901;SDS011;29562;40.390;-3.706;2023-05-23T13:28:51;3.13;;;2.08;;
43901;SDS011;29562;40.390;-3.706;2023-05-23T13:38:53;4.28;;;1.60;;
43901;SDS011;29562;40.390;-3.706;2023-05-23T13:48:54;2.88;;;2.17;;
43901;SDS011;29562;40.390;-3.706;2023-05-23T13:58:55;4.05;;;2.20;;
43901;SDS011;29562;40.390;-3.706;2023-05-23T14:08:56;3.67;;;1.60;;
43901;SDS011;29562;40.390;-3.706;2023-05-23T14:18:57;3.22;;;1.70;;
43901;SDS011;29562;40.390;-3.706;2023-05-23T14:28:58;3.22;;;1.63;;
43901;SDS011;29562;40.390;-3.706;2023-05-23T14:39:00;8.82;;;2.65;;
43901;SDS011;29562;40.390;-3.706;2023-05-23T14:49:03;8.60;;;2.75;;
43901;SDS011;29562;40.390;-3.706;2023-05-23T14:59:04;11.07;;;3.00;;
43901;SDS011;29562;40.390;-3.706;2023-05-23T15:09:05;9.88;;;3.40;;
43901;SDS011;29562;40.390;-3.706;2023-05-23T15:19:08;15.57;;;4.10;;
43901;SDS011;29562;40.390;-3.706;2023-05-23T15:29:09;6.68;;;3.00;;
43901;SDS011;29562;40.390;-3.706;2023-05-23T15:39:11;8.68;;;3.25;;
43901;SDS011;29562;40.390;-3.706;2023-05-23T15:49:13;10.25;;;3.65;;
43901;SDS011;29562;40.390;-3.706;2023-05-23T15:59:14;6.80;;;4.03;;
43901;SDS011;29562;40.390;-3.706;2023-05-23T16:09:15;9.38;;;4.30;;
43901;SDS011;29562;40.390;-3.706;2023-05-23T16:19:16;11.48;;;4.90;;
43901;SDS011;29562;40.390;-3.706;2023-05-23T16:29:17;7.85;;;5.10;;
43901;SDS011;29562;40.390;-3.706;2023-05-23T16:39:18;11.93;;;5.97;;
43901;SDS011;29562;40.390;-3.706;2023-05-23T16:49:19;11.52;;;5.30;;
43901;SDS011;29562;40.390;-3.706;2023-05-23T16:59:21;5.57;;;3.60;;
43901;SDS011;29562;40.390;-3.706;2023-05-23T17:09:22;8.45;;;4.47;;
43901;SDS011;29562;40.390;-3.706;2023-05-23T17:19:23;5.43;;;3.58;;
43901;SDS011;29562;40.390;-3.706;2023-05-23T17:29:24;5.38;;;4.22;;
43901;SDS011;29562;40.390;-3.706;2023-05-23T17:39:26;6.35;;;4.45;;
43901;SDS011;29562;40.390;-3.706;2023-05-23T17:49:27;7.25;;;4.85;;
43901;SDS011;29562;40.390;-3.706;2023-05-23T17:59:28;7.25;;;4.78;;
43901;SDS011;29562;40.390;-3.706;2023-05-23T18:09:31;8.57;;;5.10;;
43901;SDS011;29562;40.390;-3.706;2023-05-23T18:19:33;10.10;;;6.03;;
43901;SDS011;29562;40.390;-3.706;2023-05-23T18:29:34;7.15;;;4.53;;
43901;SDS011;29562;40.390;-3.706;2023-05-23T18:39:35;10.32;;;5.68;;
43901;SDS011;29562;40.390;-3.706;2023-05-23T18:49:36;10.85;;;5.57;;
43901;SDS011;29562;40.390;-3.706;2023-05-23T18:59:38;8.75;;;5.00;;
43901;SDS011;29562;40.390;-3.706;2023-05-23T19:09:39;9.07;;;5.28;;
43901;SDS011;29562;40.390;-3.706;2023-05-23T19:19:40;11.15;;;5.82;;
43901;SDS011;29562;40.390;-3.706;2023-05-23T19:29:41;13.90;;;5.90;;
43901;SDS011;29562;40.390;-3.706;2023-05-23T19:39:43;8.35;;;5.30;;
43901;SDS011;29562;40.390;-3.706;2023-05-23T19:49:45;8.57;;;5.53;;
43901;SDS011;29562;40.390;-3.706;2023-05-23T19:59:46;11.15;;;6.22;;
43901;SDS011;29562;40.390;-3.706;2023-05-23T20:09:47;11.82;;;5.82;;
43901;SDS011;29562;40.390;-3.706;2023-05-23T20:19:48;10.05;;;5.45;;
43901;SDS011;29562;40.390;-3.706;2023-05-23T20:29:49;9.45;;;5.40;;
43901;SDS011;29562;40.390;-3.706;2023-05-23T20:39:50;8.18;;;5.03;;
43901;SDS011;29562;40.390;-3.706;2023-05-23T20:49:51;6.88;;;4.03;;
43901;SDS011;29562;40.390;-3.706;2023-05-23T20:59:53;5.10;;;3.15;;
43901;SDS011;29562;40.390;-3.706;2023-05-23T21:09:54;5.45;;;3.60;;
43901;SDS011;29562;40.390;-3.706;2023-05-23T21:19:55;6.20;;;4.00;;
43901;SDS011;29562;40.390;-3.706;2023-05-23T21:29:56;5.03;;;2.47;;
43901;SDS011;29562;40.390;-3.706;2023-05-23T21:39:57;6.07;;;2.80;;
43901;SDS011;29562;40.390;-3.706;2023-05-23T21:49:58;5.60;;;3.08;;
43901;SDS011;29562;40.390;-3.706;2023-05-23T21:59:59;3.13;;;2.40;;
43901;SDS011;29562;40.390;-3.706;2023-05-23T22:10:00;4.47;;;2.42;;
43901;SDS011;29562;40.390;-3.706;2023-05-23T22:20:02;4.78;;;2.60;;
43901;SDS011;29562;40.390;-3.706;2023-05-23T22:30:04;3.65;;;2.60;;
43901;SDS011;29562;40.390;-3.706;2023-05-23T22:40:06;3.42;;;2.42;;
43901;SDS011;29562;40.390;-3.706;2023-05-23T22:50:09;3.33;;;2.10;;
43901;SDS011;29562;40.390;-3.706;2023-05-23T23:00:10;3.92;;;2.25;;
43901;SDS011;29562;40.390;-3.706;2023-05-23T23:10:12;3.30;;;1.95;;
43901;SDS011;29562;40.390;-3.706;2023-05-23T23:20:13;4.18;;;2.10;;
43901;SDS011;29562;40.390;-3.706;2023-05-23T23:30:16;3.85;;;1.90;;
43901;SDS011;29562;40.390;-3.706;2023-05-23T23:40:17;3.08;;;2.17;;
43901;SDS011;29562;40.390;-3.706;2023-05-23T23:50:18;3.40;;;2.22;;
